sensor_id;sensor_type;location;lat;lon;timestamp;pressure;altitude;pressure_sealevel;temperature;humidity
61384;BME280;63511;49.346;8.798;2023-05-07T00:00:01;100120.53;;;15.97;76.35
61384;BME280;63511;49.346;8.798;2023-05-07T00:02:30;100119.28;;;16.08;75.78
61384;BME280;63511;49.346;8.798;2023-05-07T00:04:57;100127.00;;;16.10;75.19
61384;BME280;63511;49.346;8.798;2023-05-07T00:07:24;100124.81;;;15.98;76.07
61384;BME280;63511;49.346;8.798;2023-05-07T00:09:50;100134.50;;;15.67;77.42
61384;BME280;63511;49.346;8.798;2023-05-07T00:12:17;100133.94;;;15.93;76.34
61384;BME280;63511;49.346;8.798;2023-05-07T00:14:43;100119.59;;;15.95;75.57
61384;BME280;63511;49.346;8.798;2023-05-07T00:17:10;100125.84;;;15.83;76.56
61384;BME280;63511;49.346;8.798;2023-05-07T00:19:38;100122.03;;;15.73;77.45
61384;BME280;63511;49.346;8.798;2023-05-07T00:22:05;100117.06;;;15.95;77.13
61384;BME280;63511;49.346;8.798;2023-05-07T00:24:31;100106.41;;;15.85;77.01
61384;BME280;63511;49.346;8.798;2023-05-07T00:26:58;100105.75;;;15.69;77.41
61384;BME280;63511;49.346;8.798;2023-05-07T00:29:25;100102.50;;;15.35;79.60
61384;BME280;63511;49.346;8.798;2023-05-07T00:31:51;100097.41;;;15.53;79.76
61384;BME280;63511;49.346;8.798;2023-05-07T00:34:19;100103.88;;;15.65;78.16
61384;BME280;63511;49.346;8.798;2023-05-07T00:36:47;100097.09;;;15.47;78.12
61384;BME280;63511;49.346;8.798;2023-05-07T00:39:14;100108.22;;;15.49;77.98
61384;BME280;63511;49.346;8.798;2023-05-07T00:41:40;100104.06;;;15.70;77.10
61384;BME280;63511;49.346;8.798;2023-05-07T00:44:07;100106.19;;;15.22;78.54
61384;BME280;63511;49.346;8.798;2023-05-07T00:46:34;100108.19;;;14.93;79.78
61384;BME280;63511;49.346;8.798;2023-05-07T00:49:00;100104.66;;;14.89;80.45
61384;BME280;63511;49.346;8.798;2023-05-07T00:51:27;100099.44;;;15.42;79.00
61384;BME280;63511;49.346;8.798;2023-05-07T00:53:55;100106.44;;;15.28;79.32
61384;BME280;63511;49.346;8.798;2023-05-07T00:56:22;100108.19;;;15.29;79.38
61384;BME280;63511;49.346;8.798;2023-05-07T00:58:49;100101.84;;;15.78;77.52
61384;BME280;63511;49.346;8.798;2023-05-07T01:01:16;100098.91;;;15.88;76.47
61384;BME280;63511;49.346;8.798;2023-05-07T01:03:42;100092.81;;;15.84;76.60
61384;BME280;63511;49.346;8.798;2023-05-07T01:06:09;100084.00;;;15.39;78.40
61384;BME280;63511;49.346;8.798;2023-05-07T01:08:37;100085.34;;;15.50;78.14
61384;BME280;63511;49.346;8.798;2023-05-07T01:11:07;100087.03;;;15.50;78.02
61384;BME280;63511;49.346;8.798;2023-05-07T01:13:34;100087.47;;;15.59;77.36
61384;BME280;63511;49.346;8.798;2023-05-07T01:16:01;100083.97;;;15.38;77.93
61384;BME280;63511;49.346;8.798;2023-05-07T01:18:28;100082.69;;;15.47;77.52
61384;BME280;63511;49.346;8.798;2023-05-07T01:20:56;100079.94;;;15.43;77.35
61384;BME280;63511;49.346;8.798;2023-05-07T01:23:25;100084.47;;;15.50;76.75
61384;BME280;63511;49.346;8.798;2023-05-07T01:25:54;100087.00;;;15.48;76.57
61384;BME280;63511;49.346;8.798;2023-05-07T01:28:20;100083.84;;;14.98;78.59
61384;BME280;63511;49.346;8.798;2023-05-07T01:30:49;100084.34;;;15.08;78.37
61384;BME280;63511;49.346;8.798;2023-05-07T01:33:18;100089.97;;;15.01;78.57
61384;BME280;63511;49.346;8.798;2023-05-07T01:35:50;100087.03;;;15.11;78.17
61384;BME280;63511;49.346;8.798;2023-05-07T01:38:18;100083.09;;;15.18;78.03
61384;BME280;63511;49.346;8.798;2023-05-07T01:40:46;100080.88;;;15.25;77.31
61384;BME280;63511;49.346;8.798;2023-05-07T01:43:13;100080.28;;;15.31;77.23
61384;BME280;63511;49.346;8.798;2023-05-07T01:45:39;100086.63;;;15.21;77.60
61384;BME280;63511;49.346;8.798;2023-05-07T01:48:07;100077.63;;;14.91;78.91
61384;BME280;63511;49.346;8.798;2023-05-07T01:50:35;100077.53;;;14.70;80.03
61384;BME280;63511;49.346;8.798;2023-05-07T01:53:02;100076.47;;;14.84;79.02
61384;BME280;63511;49.346;8.798;2023-05-07T01:55:29;100076.47;;;15.02;78.02
61384;BME280;63511;49.346;8.798;2023-05-07T01:57:57;100084.88;;;15.01;78.03
61384;BME280;63511;49.346;8.798;2023-05-07T02:00:24;100083.25;;;15.03;77.97
61384;BME280;63511;49.346;8.798;2023-05-07T02:02:50;100086.97;;;15.10;77.05
61384;BME280;63511;49.346;8.798;2023-05-07T02:05:17;100079.78;;;15.01;76.83
61384;BME280;63511;49.346;8.798;2023-05-07T02:07:44;100080.22;;;14.93;77.59
61384;BME280;63511;49.346;8.798;2023-05-07T02:10:10;100085.88;;;15.05;77.05
61384;BME280;63511;49.346;8.798;2023-05-07T02:12:37;100085.16;;;15.07;77.14
61384;BME280;63511;49.346;8.798;2023-05-07T02:15:06;100093.31;;;14.82;78.10
61384;BME280;63511;49.346;8.798;2023-05-07T02:17:33;100080.56;;;14.81;77.18
61384;BME280;63511;49.346;8.798;2023-05-07T02:20:00;100082.50;;;14.86;77.02
61384;BME280;63511;49.346;8.798;2023-05-07T02:22:28;100079.69;;;14.63;77.95
61384;BME280;63511;49.346;8.798;2023-05-07T02:24:56;100084.78;;;14.63;78.13
61384;BME280;63511;49.346;8.798;2023-05-07T02:27:23;100086.91;;;14.54;79.37
61384;BME280;63511;49.346;8.798;2023-05-07T02:29:49;100083.88;;;14.27;80.70
61384;BME280;63511;49.346;8.798;2023-05-07T02:32:17;100079.47;;;14.58;79.58
61384;BME280;63511;49.346;8.798;2023-05-07T02:34:44;100077.81;;;14.59;79.38
61384;BME280;63511;49.346;8.798;2023-05-07T02:37:10;100081.31;;;14.61;79.28
61384;BME280;63511;49.346;8.798;2023-05-07T02:39:37;100085.28;;;14.73;78.05
61384;BME280;63511;49.346;8.798;2023-05-07T02:42:04;100084.47;;;14.57;78.77
61384;BME280;63511;49.346;8.798;2023-05-07T02:44:30;100083.88;;;14.27;79.89
61384;BME280;63511;49.346;8.798;2023-05-07T02:46:57;100084.94;;;14.48;78.59
61384;BME280;63511;49.346;8.798;2023-05-07T02:49:25;100086.50;;;14.46;78.55
61384;BME280;63511;49.346;8.798;2023-05-07T02:51:52;100089.81;;;14.43;78.53
61384;BME280;63511;49.346;8.798;2023-05-07T02:54:18;100088.28;;;14.65;78.03
61384;BME280;63511;49.346;8.798;2023-05-07T02:56:45;100082.75;;;14.56;78.18
61384;BME280;63511;49.346;8.798;2023-05-07T02:59:12;100076.53;;;14.49;78.30
61384;BME280;63511;49.346;8.798;2023-05-07T03:01:38;100086.09;;;14.55;78.60
61384;BME280;63511;49.346;8.798;2023-05-07T03:04:06;100079.56;;;14.60;77.93
61384;BME280;63511;49.346;8.798;2023-05-07T03:06:34;100086.81;;;14.52;78.08
61384;BME280;63511;49.346;8.798;2023-05-07T03:09:01;100086.16;;;14.56;78.07
61384;BME280;63511;49.346;8.798;2023-05-07T03:11:28;100088.97;;;14.62;77.82
61384;BME280;63511;49.346;8.798;2023-05-07T03:13:54;100080.28;;;14.57;78.24
61384;BME280;63511;49.346;8.798;2023-05-07T03:16:21;100081.59;;;14.49;78.29
61384;BME280;63511;49.346;8.798;2023-05-07T03:18:48;100081.97;;;14.39;78.14
61384;BME280;63511;49.346;8.798;2023-05-07T03:21:14;100074.16;;;14.36;78.97
61384;BME280;63511;49.346;8.798;2023-05-07T03:23:42;100074.97;;;14.53;78.06
61384;BME280;63511;49.346;8.798;2023-05-07T03:26:09;100065.84;;;14.38;78.36
61384;BME280;63511;49.346;8.798;2023-05-07T03:28:36;100061.81;;;14.61;77.51
61384;BME280;63511;49.346;8.798;2023-05-07T03:31:02;100066.31;;;14.31;78.99
61384;BME280;63511;49.346;8.798;2023-05-07T03:33:29;100062.78;;;14.45;78.84
61384;BME280;63511;49.346;8.798;2023-05-07T03:35:55;100066.44;;;14.51;77.77
61384;BME280;63511;49.346;8.798;2023-05-07T03:38:22;100070.78;;;14.53;77.52
61384;BME280;63511;49.346;8.798;2023-05-07T03:40:50;100065.97;;;14.24;78.69
61384;BME280;63511;49.346;8.798;2023-05-07T03:43:18;100063.84;;;14.33;78.24
61384;BME280;63511;49.346;8.798;2023-05-07T03:45:44;100069.38;;;14.42;77.86
61384;BME280;63511;49.346;8.798;2023-05-07T03:48:11;100067.19;;;14.32;77.87
61384;BME280;63511;49.346;8.798;2023-05-07T03:50:37;100071.72;;;14.37;78.24
61384;BME280;63511;49.346;8.798;2023-05-07T03:53:04;100074.63;;;14.45;78.05
61384;BME280;63511;49.346;8.798;2023-05-07T03:55:35;100079.59;;;14.26;78.31
61384;BME280;63511;49.346;8.798;2023-05-07T03:58:03;100079.81;;;14.13;78.04
61384;BME280;63511;49.346;8.798;2023-05-07T04:00:29;100079.06;;;14.15;77.31
61384;BME280;63511;49.346;8.798;2023-05-07T04:02:58;100085.38;;;13.72;79.17
61384;BME280;63511;49.346;8.798;2023-05-07T04:05:25;100082.59;;;14.01;78.97
61384;BME280;63511;49.346;8.798;2023-05-07T04:07:51;100081.34;;;14.27;78.57
61384;BME280;63511;49.346;8.798;2023-05-07T04:10:18;100090.44;;;13.88;80.37
61384;BME280;63511;49.346;8.798;2023-05-07T04:12:44;100095.41;;;13.86;81.60
61384;BME280;63511;49.346;8.798;2023-05-07T04:15:13;100099.91;;;14.08;79.84
61384;BME280;63511;49.346;8.798;2023-05-07T04:17:40;100088.59;;;13.85;79.81
61384;BME280;63511;49.346;8.798;2023-05-07T04:20:08;100099.38;;;14.15;78.91
61384;BME280;63511;49.346;8.798;2023-05-07T04:22:35;100101.06;;;14.32;77.99
61384;BME280;63511;49.346;8.798;2023-05-07T04:25:02;100097.66;;;14.32;77.60
61384;BME280;63511;49.346;8.798;2023-05-07T04:27:29;100097.72;;;14.50;77.16
61384;BME280;63511;49.346;8.798;2023-05-07T04:29:55;100092.78;;;14.53;77.17
61384;BME280;63511;49.346;8.798;2023-05-07T04:32:23;100097.78;;;14.51;77.45
61384;BME280;63511;49.346;8.798;2023-05-07T04:34:50;100104.22;;;14.62;76.84
61384;BME280;63511;49.346;8.798;2023-05-07T04:37:17;100101.09;;;14.68;77.22
61384;BME280;63511;49.346;8.798;2023-05-07T04:39:44;100106.41;;;14.72;76.96
61384;BME280;63511;49.346;8.798;2023-05-07T04:42:14;100104.16;;;14.43;77.91
61384;BME280;63511;49.346;8.798;2023-05-07T04:44:40;100094.94;;;14.80;77.07
61384;BME280;63511;49.346;8.798;2023-05-07T04:47:07;100103.81;;;14.71;77.20
61384;BME280;63511;49.346;8.798;2023-05-07T04:49:34;100106.03;;;14.82;77.57
61384;BME280;63511;49.346;8.798;2023-05-07T04:52:01;100107.78;;;15.20;76.56
61384;BME280;63511;49.346;8.798;2023-05-07T04:54:28;100109.47;;;15.39;76.12
61384;BME280;63511;49.346;8.798;2023-05-07T04:56:55;100108.25;;;15.50;75.50
61384;BME280;63511;49.346;8.798;2023-05-07T04:59:21;100111.31;;;15.61;75.54
61384;BME280;63511;49.346;8.798;2023-05-07T05:01:48;100101.31;;;15.46;75.69
61384;BME280;63511;49.346;8.798;2023-05-07T05:04:14;100108.00;;;15.25;76.78
61384;BME280;63511;49.346;8.798;2023-05-07T05:06:44;100120.31;;;15.35;77.62
61384;BME280;63511;49.346;8.798;2023-05-07T05:09:11;100123.44;;;15.66;76.74
61384;BME280;63511;49.346;8.798;2023-05-07T05:11:37;100122.75;;;15.70;76.10
61384;BME280;63511;49.346;8.798;2023-05-07T05:14:04;100126.19;;;15.90;75.97
61384;BME280;63511;49.346;8.798;2023-05-07T05:16:31;100122.16;;;15.95;75.58
61384;BME280;63511;49.346;8.798;2023-05-07T05:18:58;100126.56;;;15.99;75.33
61384;BME280;63511;49.346;8.798;2023-05-07T05:21:24;100126.06;;;16.08;75.23
61384;BME280;63511;49.346;8.798;2023-05-07T05:23:52;100125.81;;;16.23;74.71
61384;BME280;63511;49.346;8.798;2023-05-07T05:26:19;100116.06;;;16.12;74.43
61384;BME280;63511;49.346;8.798;2023-05-07T05:28:46;100129.47;;;16.08;75.56
61384;BME280;63511;49.346;8.798;2023-05-07T05:31:13;100122.41;;;16.22;75.85
61384;BME280;63511;49.346;8.798;2023-05-07T05:33:40;100122.34;;;16.41;76.38
61384;BME280;63511;49.346;8.798;2023-05-07T05:36:08;100129.22;;;16.63;76.19
61384;BME280;63511;49.346;8.798;2023-05-07T05:38:38;100125.38;;;16.33;75.18
61384;BME280;63511;49.346;8.798;2023-05-07T05:41:06;100126.72;;;16.65;75.14
61384;BME280;63511;49.346;8.798;2023-05-07T05:43:33;100124.31;;;16.90;74.87
61384;BME280;63511;49.346;8.798;2023-05-07T05:45:59;100127.09;;;16.96;74.17
61384;BME280;63511;49.346;8.798;2023-05-07T05:48:29;100125.94;;;16.88;74.46
61384;BME280;63511;49.346;8.798;2023-05-07T05:50:56;100122.16;;;17.00;73.65
61384;BME280;63511;49.346;8.798;2023-05-07T05:53:23;100124.22;;;17.09;73.74
61384;BME280;63511;49.346;8.798;2023-05-07T05:55:49;100126.06;;;17.13;73.39
61384;BME280;63511;49.346;8.798;2023-05-07T05:58:18;100122.94;;;16.98;74.13
61384;BME280;63511;49.346;8.798;2023-05-07T06:00:45;100130.41;;;16.93;75.39
61384;BME280;63511;49.346;8.798;2023-05-07T06:03:13;100115.22;;;17.19;74.44
61384;BME280;63511;49.346;8.798;2023-05-07T06:05:40;100110.34;;;17.49;74.06
61384;BME280;63511;49.346;8.798;2023-05-07T06:08:06;100109.69;;;17.54;74.14
61384;BME280;63511;49.346;8.798;2023-05-07T06:10:33;100108.50;;;17.45;74.53
61384;BME280;63511;49.346;8.798;2023-05-07T06:12:59;100121.94;;;17.17;76.48
61384;BME280;63511;49.346;8.798;2023-05-07T06:15:28;100114.28;;;17.17;77.70
61384;BME280;63511;49.346;8.798;2023-05-07T06:17:54;100122.22;;;17.48;76.18
61384;BME280;63511;49.346;8.798;2023-05-07T06:20:22;100121.00;;;17.84;74.83
61384;BME280;63511;49.346;8.798;2023-05-07T06:22:48;100115.81;;;18.32;73.46
61384;BME280;63511;49.346;8.798;2023-05-07T06:25:26;100112.44;;;18.58;71.90
61384;BME280;63511;49.346;8.798;2023-05-07T06:27:52;100104.22;;;18.68;69.88
61384;BME280;63511;49.346;8.798;2023-05-07T06:30:19;100102.84;;;18.80;69.25
61384;BME280;63511;49.346;8.798;2023-05-07T06:32:46;100113.34;;;19.17;68.57
61384;BME280;63511;49.346;8.798;2023-05-07T06:35:13;100124.13;;;18.79;68.47
61384;BME280;63511;49.346;8.798;2023-05-07T06:37:40;100128.53;;;18.31;73.25
61384;BME280;63511;49.346;8.798;2023-05-07T06:40:08;100130.22;;;18.30;73.98
61384;BME280;63511;49.346;8.798;2023-05-07T06:42:35;100129.25;;;18.26;74.60
61384;BME280;63511;49.346;8.798;2023-05-07T06:45:02;100128.34;;;18.77;71.78
61384;BME280;63511;49.346;8.798;2023-05-07T06:47:28;100129.16;;;19.32;71.23
61384;BME280;63511;49.346;8.798;2023-05-07T06:49:56;100129.59;;;19.46;69.56
61384;BME280;63511;49.346;8.798;2023-05-07T06:52:23;100126.38;;;19.53;69.38
61384;BME280;63511;49.346;8.798;2023-05-07T06:54:50;100125.94;;;19.39;70.44
61384;BME280;63511;49.346;8.798;2023-05-07T06:57:16;100111.28;;;19.34;70.43
61384;BME280;63511;49.346;8.798;2023-05-07T06:59:43;100122.88;;;19.23;70.47
61384;BME280;63511;49.346;8.798;2023-05-07T07:02:09;100120.19;;;19.18;70.65
61384;BME280;63511;49.346;8.798;2023-05-07T07:04:36;100122.28;;;19.60;69.89
61384;BME280;63511;49.346;8.798;2023-05-07T07:07:04;100126.00;;;19.71;69.28
61384;BME280;63511;49.346;8.798;2023-05-07T07:09:30;100120.75;;;19.36;71.47
61384;BME280;63511;49.346;8.798;2023-05-07T07:11:59;100124.63;;;19.52;69.94
61384;BME280;63511;49.346;8.798;2023-05-07T07:14:26;100119.88;;;19.66;69.10
61384;BME280;63511;49.346;8.798;2023-05-07T07:16:52;100122.97;;;19.84;68.29
61384;BME280;63511;49.346;8.798;2023-05-07T07:19:19;100123.81;;;20.17;67.32
61384;BME280;63511;49.346;8.798;2023-05-07T07:21:46;100118.72;;;20.52;65.04
61384;BME280;63511;49.346;8.798;2023-05-07T07:24:14;100112.84;;;20.95;64.34
61384;BME280;63511;49.346;8.798;2023-05-07T07:26:46;100116.47;;;21.04;60.65
61384;BME280;63511;49.346;8.798;2023-05-07T07:29:14;100107.75;;;20.96;61.20
61384;BME280;63511;49.346;8.798;2023-05-07T07:31:41;100109.19;;;21.23;61.74
61384;BME280;63511;49.346;8.798;2023-05-07T07:34:07;100114.00;;;21.07;60.54
61384;BME280;63511;49.346;8.798;2023-05-07T07:36:34;100111.09;;;20.94;59.88
61384;BME280;63511;49.346;8.798;2023-05-07T07:39:05;100106.25;;;21.46;58.94
61384;BME280;63511;49.346;8.798;2023-05-07T07:41:33;100099.16;;;21.35;59.81
61384;BME280;63511;49.346;8.798;2023-05-07T07:44:02;100096.69;;;21.84;59.86
61384;BME280;63511;49.346;8.798;2023-05-07T07:46:32;100104.84;;;22.61;61.52
61384;BME280;63511;49.346;8.798;2023-05-07T07:49:01;100103.22;;;22.14;55.52
61384;BME280;63511;49.346;8.798;2023-05-07T07:51:27;100101.16;;;22.42;59.16
61384;BME280;63511;49.346;8.798;2023-05-07T07:53:55;100101.78;;;22.83;54.50
61384;BME280;63511;49.346;8.798;2023-05-07T07:56:22;100112.19;;;22.35;54.94
61384;BME280;63511;49.346;8.798;2023-05-07T07:58:50;100110.13;;;22.70;55.50
61384;BME280;63511;49.346;8.798;2023-05-07T08:01:19;100115.88;;;22.53;55.09
61384;BME280;63511;49.346;8.798;2023-05-07T08:03:45;100112.81;;;22.22;56.97
61384;BME280;63511;49.346;8.798;2023-05-07T08:06:12;100111.63;;;23.13;55.32
61384;BME280;63511;49.346;8.798;2023-05-07T08:08:39;100108.31;;;23.23;54.85
61384;BME280;63511;49.346;8.798;2023-05-07T08:11:06;100111.47;;;23.01;54.26
61384;BME280;63511;49.346;8.798;2023-05-07T08:13:33;100110.88;;;23.22;54.61
61384;BME280;63511;49.346;8.798;2023-05-07T08:16:05;100114.59;;;22.79;55.91
61384;BME280;63511;49.346;8.798;2023-05-07T08:18:31;100107.16;;;22.99;53.45
61384;BME280;63511;49.346;8.798;2023-05-07T08:21:00;100111.88;;;23.32;54.69
61384;BME280;63511;49.346;8.798;2023-05-07T08:23:27;100122.53;;;22.96;54.15
61384;BME280;63511;49.346;8.798;2023-05-07T08:25:53;100116.91;;;23.21;53.04
61384;BME280;63511;49.346;8.798;2023-05-07T08:28:20;100127.25;;;23.25;53.92
61384;BME280;63511;49.346;8.798;2023-05-07T08:30:47;100126.13;;;23.71;52.33
61384;BME280;63511;49.346;8.798;2023-05-07T08:33:15;100120.06;;;23.69;53.26
61384;BME280;63511;49.346;8.798;2023-05-07T08:35:42;100117.28;;;23.51;54.67
61384;BME280;63511;49.346;8.798;2023-05-07T08:38:09;100112.00;;;23.44;53.71
61384;BME280;63511;49.346;8.798;2023-05-07T08:40:36;100110.16;;;24.10;54.14
61384;BME280;63511;49.346;8.798;2023-05-07T08:43:03;100111.22;;;24.31;51.17
61384;BME280;63511;49.346;8.798;2023-05-07T08:45:32;100122.88;;;24.90;48.05
61384;BME280;63511;49.346;8.798;2023-05-07T08:47:59;100128.50;;;24.38;51.39
61384;BME280;63511;49.346;8.798;2023-05-07T08:50:29;100124.31;;;24.53;49.88
61384;BME280;63511;49.346;8.798;2023-05-07T08:52:56;100125.84;;;24.32;49.65
61384;BME280;63511;49.346;8.798;2023-05-07T08:55:24;100120.69;;;24.32;50.06
61384;BME280;63511;49.346;8.798;2023-05-07T08:57:51;100122.63;;;24.59;51.12
61384;BME280;63511;49.346;8.798;2023-05-07T09:00:18;100125.13;;;24.45;50.59
61384;BME280;63511;49.346;8.798;2023-05-07T09:02:44;100128.41;;;24.30;52.69
61384;BME280;63511;49.346;8.798;2023-05-07T09:05:11;100121.16;;;24.94;47.38
61384;BME280;63511;49.346;8.798;2023-05-07T09:07:39;100120.78;;;24.44;51.14
61384;BME280;63511;49.346;8.798;2023-05-07T09:10:09;100112.66;;;24.04;51.03
61384;BME280;63511;49.346;8.798;2023-05-07T09:12:50;100110.53;;;24.50;51.41
61384;BME280;63511;49.346;8.798;2023-05-07T09:15:36;100105.75;;;25.11;49.13
61384;BME280;63511;49.346;8.798;2023-05-07T09:18:08;100106.34;;;24.69;50.47
61384;BME280;63511;49.346;8.798;2023-05-07T09:20:35;100112.69;;;24.06;51.63
61384;BME280;63511;49.346;8.798;2023-05-07T09:23:07;100103.75;;;24.72;50.04
61384;BME280;63511;49.346;8.798;2023-05-07T09:25:34;100103.75;;;24.69;50.40
61384;BME280;63511;49.346;8.798;2023-05-07T09:28:02;100101.97;;;24.55;50.16
61384;BME280;63511;49.346;8.798;2023-05-07T09:30:31;100099.81;;;25.33;50.63
61384;BME280;63511;49.346;8.798;2023-05-07T09:32:58;100099.63;;;24.95;49.43
61384;BME280;63511;49.346;8.798;2023-05-07T09:35:25;100091.00;;;24.90;50.37
61384;BME280;63511;49.346;8.798;2023-05-07T09:37:57;100096.88;;;24.71;52.77
61384;BME280;63511;49.346;8.798;2023-05-07T09:40:25;100094.69;;;25.44;49.11
61384;BME280;63511;49.346;8.798;2023-05-07T09:42:52;100103.19;;;25.20;52.15
61384;BME280;63511;49.346;8.798;2023-05-07T09:45:22;100106.84;;;25.64;51.30
61384;BME280;63511;49.346;8.798;2023-05-07T09:48:04;100090.50;;;25.94;47.87
61384;BME280;63511;49.346;8.798;2023-05-07T09:50:57;100097.41;;;25.94;49.34
61384;BME280;63511;49.346;8.798;2023-05-07T09:53:28;100097.28;;;25.53;51.17
61384;BME280;63511;49.346;8.798;2023-05-07T09:56:02;100089.66;;;25.95;48.57
61384;BME280;63511;49.346;8.798;2023-05-07T09:58:29;100086.19;;;25.89;49.66
61384;BME280;63511;49.346;8.798;2023-05-07T10:00:57;100089.66;;;26.10;49.42
61384;BME280;63511;49.346;8.798;2023-05-07T10:03:26;100087.94;;;26.11;47.98
61384;BME280;63511;49.346;8.798;2023-05-07T10:05:55;100086.19;;;26.05;47.26
61384;BME280;63511;49.346;8.798;2023-05-07T10:08:21;100082.59;;;25.41;49.71
61384;BME280;63511;49.346;8.798;2023-05-07T10:11:01;100084.47;;;25.80;49.67
61384;BME280;63511;49.346;8.798;2023-05-07T10:13:29;100087.91;;;26.02;51.65
61384;BME280;63511;49.346;8.798;2023-05-07T10:15:56;100083.59;;;26.17;48.41
61384;BME280;63511;49.346;8.798;2023-05-07T10:18:23;100076.75;;;26.32;48.49
61384;BME280;63511;49.346;8.798;2023-05-07T10:20:54;100082.56;;;25.39;48.92
61384;BME280;63511;49.346;8.798;2023-05-07T10:23:26;100080.88;;;25.38;49.63
61384;BME280;63511;49.346;8.798;2023-05-07T10:25:53;100084.22;;;25.15;50.29
61384;BME280;63511;49.346;8.798;2023-05-07T10:28:22;100077.34;;;25.17;49.60
61384;BME280;63511;49.346;8.798;2023-05-07T10:30:55;100080.88;;;25.42;50.77
61384;BME280;63511;49.346;8.798;2023-05-07T10:33:27;100072.34;;;25.59;48.57
61384;BME280;63511;49.346;8.798;2023-05-07T10:35:55;100065.50;;;25.95;45.96
61384;BME280;63511;49.346;8.798;2023-05-07T10:38:24;100074.94;;;25.68;48.81
61384;BME280;63511;49.346;8.798;2023-05-07T10:40:51;100079.25;;;25.77;48.74
61384;BME280;63511;49.346;8.798;2023-05-07T10:43:18;100074.09;;;25.88;47.20
61384;BME280;63511;49.346;8.798;2023-05-07T10:45:49;100067.19;;;25.80;46.99
61384;BME280;63511;49.346;8.798;2023-05-07T10:48:38;100062.88;;;25.69;46.89
61384;BME280;63511;49.346;8.798;2023-05-07T10:51:24;100065.47;;;25.86;46.90
61384;BME280;63511;49.346;8.798;2023-05-07T10:54:04;100059.44;;;25.88;45.85
61384;BME280;63511;49.346;8.798;2023-05-07T10:56:44;100050.81;;;26.45;45.34
61384;BME280;63511;49.346;8.798;2023-05-07T10:59:34;100055.97;;;26.18;45.08
61384;BME280;63511;49.346;8.798;2023-05-07T11:02:06;100056.91;;;26.26;48.00
61384;BME280;63511;49.346;8.798;2023-05-07T11:04:36;100051.63;;;26.72;45.81
61384;BME280;63511;49.346;8.798;2023-05-07T11:07:15;100053.34;;;26.88;44.92
61384;BME280;63511;49.346;8.798;2023-05-07T11:09:57;100048.81;;;27.32;45.52
61384;BME280;63511;49.346;8.798;2023-05-07T11:15:11;100042.84;;;27.14;44.95
61384;BME280;63511;49.346;8.798;2023-05-07T11:17:51;100041.22;;;26.90;44.26
61384;BME280;63511;49.346;8.798;2023-05-07T11:20:20;100042.09;;;26.93;42.51
61384;BME280;63511;49.346;8.798;2023-05-07T11:22:47;100046.47;;;26.62;46.61
61384;BME280;63511;49.346;8.798;2023-05-07T11:25:19;100040.47;;;26.30;42.52
61384;BME280;63511;49.346;8.798;2023-05-07T11:27:46;100038.69;;;26.67;43.87
61384;BME280;63511;49.346;8.798;2023-05-07T11:30:16;100042.19;;;26.46;44.73
61384;BME280;63511;49.346;8.798;2023-05-07T11:32:47;100041.31;;;26.46;43.93
61384;BME280;63511;49.346;8.798;2023-05-07T11:35:14;100037.03;;;26.34;43.14
61384;BME280;63511;49.346;8.798;2023-05-07T11:37:46;100036.16;;;26.41;46.05
61384;BME280;63511;49.346;8.798;2023-05-07T11:40:13;100036.00;;;26.94;43.86
61384;BME280;63511;49.346;8.798;2023-05-07T11:42:40;100037.88;;;26.33;45.42
61384;BME280;63511;49.346;8.798;2023-05-07T11:45:08;100033.34;;;27.11;45.00
61384;BME280;63511;49.346;8.798;2023-05-07T11:47:35;100033.22;;;27.38;43.62
61384;BME280;63511;49.346;8.798;2023-05-07T11:50:04;100036.78;;;27.19;44.88
61384;BME280;63511;49.346;8.798;2023-05-07T11:52:31;100027.94;;;27.57;45.60
61384;BME280;63511;49.346;8.798;2023-05-07T11:55:13;100020.22;;;27.44;44.73
61384;BME280;63511;49.346;8.798;2023-05-07T11:57:40;100019.31;;;27.56;42.13
61384;BME280;63511;49.346;8.798;2023-05-07T12:00:11;100028.31;;;26.73;45.32
61384;BME280;63511;49.346;8.798;2023-05-07T12:02:37;100030.72;;;27.17;46.52
61384;BME280;63511;49.346;8.798;2023-05-07T12:05:07;100026.56;;;26.75;44.23
61384;BME280;63511;49.346;8.798;2023-05-07T12:07:34;100021.41;;;26.72;44.95
61384;BME280;63511;49.346;8.798;2023-05-07T12:10:06;100013.41;;;27.21;47.09
61384;BME280;63511;49.346;8.798;2023-05-07T12:12:39;100020.22;;;27.43;45.35
61384;BME280;63511;49.346;8.798;2023-05-07T12:15:07;100017.47;;;27.70;45.33
61384;BME280;63511;49.346;8.798;2023-05-07T12:17:34;100018.72;;;27.04;43.75
61384;BME280;63511;49.346;8.798;2023-05-07T12:20:01;100020.19;;;27.54;45.89
61384;BME280;63511;49.346;8.798;2023-05-07T12:22:28;100005.22;;;27.87;43.39
61384;BME280;63511;49.346;8.798;2023-05-07T12:24:56;100013.94;;;27.77;43.54
61384;BME280;63511;49.346;8.798;2023-05-07T12:27:23;100010.44;;;27.84;43.67
61384;BME280;63511;49.346;8.798;2023-05-07T12:30:03;100017.53;;;27.61;42.69
61384;BME280;63511;49.346;8.798;2023-05-07T12:32:30;100008.53;;;28.05;41.83
61384;BME280;63511;49.346;8.798;2023-05-07T12:35:01;99996.72;;;27.72;40.76
61384;BME280;63511;49.346;8.798;2023-05-07T12:37:27;100003.56;;;27.77;41.05
61384;BME280;63511;49.346;8.798;2023-05-07T12:40:03;100002.88;;;27.54;41.70
61384;BME280;63511;49.346;8.798;2023-05-07T12:42:32;99999.25;;;27.75;40.81
61384;BME280;63511;49.346;8.798;2023-05-07T12:45:01;99996.50;;;27.98;41.32
61384;BME280;63511;49.346;8.798;2023-05-07T12:47:33;99984.16;;;28.19;42.84
61384;BME280;63511;49.346;8.798;2023-05-07T12:50:00;99994.66;;;28.12;41.97
61384;BME280;63511;49.346;8.798;2023-05-07T12:52:26;99989.19;;;28.36;43.43
61384;BME280;63511;49.346;8.798;2023-05-07T12:54:56;99982.28;;;28.35;40.83
61384;BME280;63511;49.346;8.798;2023-05-07T12:57:23;99975.97;;;28.57;41.98